PWSweather.com
Personal Weather Stations
Station Observations
DW1039
Liberty & Fairfield Townships, Hamilton, OH 45011

Liberty & Fairfield TownshipsHamilton, OH 45011

Lat: 39.3933, Lon: -84.477

Elevation: 780

Station Type: Davis Vantage Pro2 (Daytime Fan Aspirated)

http://www.lfweathercenter.com/

High Low Average
Temperature 35.1°F1.7°C 25.6°F-3.6°C 30.6°F-0.8°C
Dew Point 31.1°F-0.5°C 20.6°F-6.3°C 26.3°F-3.2°C
Winds 16.0 mph 25.7 kmh Calm Calm 5.0 mph W8.0 kmh W
Wind Gusts 18.0 mph29.0 kmh 3.0 mph4.8 kmh 11.0 mph17.7 kmh
Humidity 87% 81% 84%
Pressure 30.34 in1027.4 mb 30.15 in1021.0 mb -
Precipitation 0.00 in0.0 mm - -
Hour Temp Dew Point Humidity Winds Wind Gusts Pressure Precip Precip Rate Daily Precip Total
12:00 AM 35.1°F1.7°C 31.1°F-0.5°C 85% 7.0 mph WSW11.3 kmh WSW 15.0 mph24.1 kmh 30.15 in1021.0 mb 0.00 in0.0 mm 0.00 in/hr0.0 mm/hr 0.00 in0.0 mm
12:10 AM 35.0°F1.7°C 31.0°F-0.6°C 85% 4.0 mph WSW6.4 kmh WSW 14.0 mph22.5 kmh 30.15 in1021.0 mb 0.00 in0.0 mm 0.00 in/hr0.0 mm/hr 0.00 in0.0 mm
12:20 AM 35.0°F1.7°C 31.0°F-0.6°C 85% 7.0 mph WSW11.3 kmh WSW 13.0 mph20.9 kmh 30.15 in1021.0 mb 0.00 in0.0 mm 0.00 in/hr0.0 mm/hr 0.00 in0.0 mm
12:30 AM 35.0°F1.7°C 31.0°F-0.6°C 85% 3.0 mph WSW4.8 kmh WSW 12.0 mph19.3 kmh 30.15 in1021.0 mb 0.00 in0.0 mm 0.00 in/hr0.0 mm/hr 0.00 in0.0 mm
12:40 AM 34.8°F1.6°C 30.8°F-0.7°C 85% 5.0 mph WSW8.0 kmh WSW 13.0 mph20.9 kmh 30.15 in1021.0 mb 0.00 in0.0 mm 0.00 in/hr0.0 mm/hr 0.00 in0.0 mm
12:50 AM 34.6°F1.4°C 30.6°F-0.8°C 85% 12.0 mph WSW19.3 kmh WSW 13.0 mph20.9 kmh 30.16 in1021.3 mb 0.00 in0.0 mm 0.00 in/hr0.0 mm/hr 0.00 in0.0 mm
01:00 AM 34.4°F1.3°C 30.4°F-0.9°C 85% 6.0 mph W9.7 kmh W 12.0 mph19.3 kmh 30.16 in1021.3 mb 0.00 in0.0 mm 0.00 in/hr0.0 mm/hr 0.00 in0.0 mm
01:10 AM 34.3°F1.3°C 30.3°F-0.9°C 85% 6.0 mph W9.7 kmh W 18.0 mph29.0 kmh 30.16 in1021.3 mb 0.00 in0.0 mm 0.00 in/hr0.0 mm/hr 0.00 in0.0 mm
01:20 AM 34.3°F1.3°C 30.3°F-0.9°C 85% 11.0 mph W17.7 kmh W 15.0 mph24.1 kmh 30.17 in1021.7 mb 0.00 in0.0 mm 0.00 in/hr0.0 mm/hr 0.00 in0.0 mm
01:30 AM 34.3°F1.3°C 30.3°F-0.9°C 85% 9.0 mph W14.5 kmh W 15.0 mph24.1 kmh 30.17 in1021.7 mb 0.00 in0.0 mm 0.00 in/hr0.0 mm/hr 0.00 in0.0 mm
01:40 AM 34.3°F1.3°C 30.3°F-0.9°C 85% 13.0 mph W20.9 kmh W 14.0 mph22.5 kmh 30.17 in1021.7 mb 0.00 in0.0 mm 0.00 in/hr0.0 mm/hr 0.00 in0.0 mm
01:50 AM 34.1°F1.2°C 30.1°F-1.1°C 85% 10.0 mph W16.1 kmh W 18.0 mph29.0 kmh 30.17 in1021.7 mb 0.00 in0.0 mm 0.00 in/hr0.0 mm/hr 0.00 in0.0 mm
02:00 AM 34.1°F1.2°C 30.1°F-1.1°C 85% 6.0 mph WSW9.7 kmh WSW 12.0 mph19.3 kmh 30.17 in1021.7 mb 0.00 in0.0 mm 0.00 in/hr0.0 mm/hr 0.00 in0.0 mm
02:10 AM 34.0°F1.1°C 30.0°F-1.1°C 85% 6.0 mph WSW9.7 kmh WSW 12.0 mph19.3 kmh 30.17 in1021.7 mb 0.00 in0.0 mm 0.00 in/hr0.0 mm/hr 0.00 in0.0 mm
02:20 AM 33.9°F1.1°C 30.2°F-1.0°C 86% 8.0 mph WSW12.9 kmh WSW 11.0 mph17.7 kmh 30.17 in1021.7 mb 0.00 in0.0 mm 0.00 in/hr0.0 mm/hr 0.00 in0.0 mm
02:30 AM 33.8°F1.0°C 30.1°F-1.1°C 86% 10.0 mph WSW16.1 kmh WSW 13.0 mph20.9 kmh 30.17 in1021.7 mb 0.00 in0.0 mm 0.00 in/hr0.0 mm/hr 0.00 in0.0 mm
02:40 AM 33.8°F1.0°C 30.1°F-1.1°C 86% 7.0 mph W11.3 kmh W 12.0 mph19.3 kmh 30.18 in1022.0 mb 0.00 in0.0 mm 0.00 in/hr0.0 mm/hr 0.00 in0.0 mm
02:50 AM 33.7°F0.9°C 30.0°F-1.1°C 86% 7.0 mph WSW11.3 kmh WSW 14.0 mph22.5 kmh 30.18 in1022.0 mb 0.00 in0.0 mm 0.00 in/hr0.0 mm/hr 0.00 in0.0 mm
03:00 AM 33.7°F0.9°C 30.0°F-1.1°C 86% 4.0 mph WSW6.4 kmh WSW 12.0 mph19.3 kmh 30.19 in1022.4 mb 0.00 in0.0 mm 0.00 in/hr0.0 mm/hr 0.00 in0.0 mm
03:10 AM 33.7°F0.9°C 30.0°F-1.1°C 86% 6.0 mph WSW9.7 kmh WSW 12.0 mph19.3 kmh 30.19 in1022.4 mb 0.00 in0.0 mm 0.00 in/hr0.0 mm/hr 0.00 in0.0 mm
03:20 AM 33.6°F0.9°C 29.9°F-1.2°C 86% 9.0 mph W14.5 kmh W 15.0 mph24.1 kmh 30.19 in1022.4 mb 0.00 in0.0 mm 0.00 in/hr0.0 mm/hr 0.00 in0.0 mm
03:30 AM 33.4°F0.8°C 29.7°F-1.3°C 86% 4.0 mph WSW6.4 kmh WSW 10.0 mph16.1 kmh 30.19 in1022.4 mb 0.00 in0.0 mm 0.00 in/hr0.0 mm/hr 0.00 in0.0 mm
03:40 AM 33.2°F0.7°C 29.5°F-1.4°C 86% 3.0 mph WSW4.8 kmh WSW 11.0 mph17.7 kmh 30.20 in1022.7 mb 0.00 in0.0 mm 0.00 in/hr0.0 mm/hr 0.00 in0.0 mm
03:50 AM 33.1°F0.6°C 29.4°F-1.4°C 86% 4.0 mph W6.4 kmh W 11.0 mph17.7 kmh 30.19 in1022.4 mb 0.00 in0.0 mm 0.00 in/hr0.0 mm/hr 0.00 in0.0 mm
04:00 AM 33.0°F0.6°C 29.3°F-1.5°C 86% 4.0 mph WSW6.4 kmh WSW 11.0 mph17.7 kmh 30.19 in1022.4 mb 0.00 in0.0 mm 0.00 in/hr0.0 mm/hr 0.00 in0.0 mm
04:10 AM 33.0°F0.6°C 29.3°F-1.5°C 86% 7.0 mph SW11.3 kmh SW 11.0 mph17.7 kmh 30.19 in1022.4 mb 0.00 in0.0 mm 0.00 in/hr0.0 mm/hr 0.00 in0.0 mm
04:20 AM 32.9°F0.5°C 29.2°F-1.6°C 86% 9.0 mph SW14.5 kmh SW 17.0 mph27.4 kmh 30.19 in1022.4 mb 0.00 in0.0 mm 0.00 in/hr0.0 mm/hr 0.00 in0.0 mm
04:30 AM 32.9°F0.5°C 29.2°F-1.6°C 86% 7.0 mph WSW11.3 kmh WSW 17.0 mph27.4 kmh 30.19 in1022.4 mb 0.00 in0.0 mm 0.00 in/hr0.0 mm/hr 0.00 in0.0 mm
04:40 AM 33.0°F0.6°C 29.3°F-1.5°C 86% 5.0 mph SW8.0 kmh SW 13.0 mph20.9 kmh 30.19 in1022.4 mb 0.00 in0.0 mm 0.00 in/hr0.0 mm/hr 0.00 in0.0 mm
04:50 AM 33.0°F0.6°C 29.0°F-1.7°C 85% 10.0 mph SW16.1 kmh SW 17.0 mph27.4 kmh 30.20 in1022.7 mb 0.00 in0.0 mm 0.00 in/hr0.0 mm/hr 0.00 in0.0 mm
05:00 AM 32.7°F0.4°C 28.7°F-1.8°C 85% 5.0 mph WSW8.0 kmh WSW 18.0 mph29.0 kmh 30.20 in1022.7 mb 0.00 in0.0 mm 0.00 in/hr0.0 mm/hr 0.00 in0.0 mm
05:10 AM 32.6°F0.3°C 28.6°F-1.9°C 85% 6.0 mph WSW9.7 kmh WSW 12.0 mph19.3 kmh 30.20 in1022.7 mb 0.00 in0.0 mm 0.00 in/hr0.0 mm/hr 0.00 in0.0 mm
05:20 AM 32.5°F0.3°C 28.8°F-1.8°C 86% 8.0 mph W12.9 kmh W 13.0 mph20.9 kmh 30.21 in1023.0 mb 0.00 in0.0 mm 0.00 in/hr0.0 mm/hr 0.00 in0.0 mm
05:30 AM 32.3°F0.2°C 28.6°F-1.9°C 86% 6.0 mph WSW9.7 kmh WSW 11.0 mph17.7 kmh 30.22 in1023.4 mb 0.00 in0.0 mm 0.00 in/hr0.0 mm/hr 0.00 in0.0 mm
05:40 AM 32.1°F0.1°C 28.4°F-2.0°C 86% 7.0 mph WNW11.3 kmh WNW 8.0 mph12.9 kmh 30.23 in1023.7 mb 0.00 in0.0 mm 0.00 in/hr0.0 mm/hr 0.00 in0.0 mm
05:50 AM 31.8°F-0.1°C 28.1°F-2.2°C 86% 15.0 mph WNW24.1 kmh WNW 15.0 mph24.1 kmh 30.23 in1023.7 mb 0.00 in0.0 mm 0.00 in/hr0.0 mm/hr 0.00 in0.0 mm
06:00 AM 31.3°F-0.4°C 27.6°F-2.4°C 86% 4.0 mph W6.4 kmh W 10.0 mph16.1 kmh 30.23 in1023.7 mb 0.00 in0.0 mm 0.00 in/hr0.0 mm/hr 0.00 in0.0 mm
06:10 AM 30.9°F-0.6°C 27.5°F-2.5°C 87% 2.0 mph W3.2 kmh W 10.0 mph16.1 kmh 30.23 in1023.7 mb 0.00 in0.0 mm 0.00 in/hr0.0 mm/hr 0.00 in0.0 mm
06:20 AM 30.9°F-0.6°C 27.5°F-2.5°C 87% 3.0 mph WNW4.8 kmh WNW 12.0 mph19.3 kmh 30.23 in1023.7 mb 0.00 in0.0 mm 0.00 in/hr0.0 mm/hr 0.00 in0.0 mm
06:30 AM 31.0°F-0.6°C 27.6°F-2.4°C 87% 2.0 mph W3.2 kmh W 10.0 mph16.1 kmh 30.24 in1024.0 mb 0.00 in0.0 mm 0.00 in/hr0.0 mm/hr 0.00 in0.0 mm
06:40 AM 31.0°F-0.6°C 27.6°F-2.4°C 87% 7.0 mph W11.3 kmh W 11.0 mph17.7 kmh 30.24 in1024.0 mb 0.00 in0.0 mm 0.00 in/hr0.0 mm/hr 0.00 in0.0 mm
06:50 AM 30.9°F-0.6°C 27.5°F-2.5°C 87% 9.0 mph W14.5 kmh W 11.0 mph17.7 kmh 30.25 in1024.4 mb 0.00 in0.0 mm 0.00 in/hr0.0 mm/hr 0.00 in0.0 mm
07:00 AM 31.0°F-0.6°C 27.3°F-2.6°C 86% 3.0 mph NW4.8 kmh NW 11.0 mph17.7 kmh 30.25 in1024.4 mb 0.00 in0.0 mm 0.00 in/hr0.0 mm/hr 0.00 in0.0 mm
07:10 AM 31.0°F-0.6°C 27.3°F-2.6°C 86% 1.0 mph W1.6 kmh W 5.0 mph8.0 kmh 30.25 in1024.4 mb 0.00 in0.0 mm 0.00 in/hr0.0 mm/hr 0.00 in0.0 mm
07:20 AM 30.9°F-0.6°C 27.2°F-2.7°C 86% 4.0 mph W6.4 kmh W 12.0 mph19.3 kmh 30.25 in1024.4 mb 0.00 in0.0 mm 0.00 in/hr0.0 mm/hr 0.00 in0.0 mm
07:30 AM 30.8°F-0.7°C 27.1°F-2.7°C 86% 5.0 mph WNW8.0 kmh WNW 10.0 mph16.1 kmh 30.25 in1024.4 mb 0.00 in0.0 mm 0.00 in/hr0.0 mm/hr 0.00 in0.0 mm
07:40 AM 30.7°F-0.7°C 27.0°F-2.8°C 86% 6.0 mph W9.7 kmh W 11.0 mph17.7 kmh 30.25 in1024.4 mb 0.00 in0.0 mm 0.00 in/hr0.0 mm/hr 0.00 in0.0 mm
07:50 AM 30.6°F-0.8°C 26.9°F-2.8°C 86% 2.0 mph W3.2 kmh W 4.0 mph6.4 kmh 30.26 in1024.7 mb 0.00 in0.0 mm 0.00 in/hr0.0 mm/hr 0.00 in0.0 mm
08:00 AM 30.6°F-0.8°C 26.9°F-2.8°C 86% 2.0 mph WNW3.2 kmh WNW 12.0 mph19.3 kmh 30.26 in1024.7 mb 0.00 in0.0 mm 0.00 in/hr0.0 mm/hr 0.00 in0.0 mm
08:10 AM 30.5°F-0.8°C 26.5°F-3.1°C 85% 7.0 mph W11.3 kmh W 7.0 mph11.3 kmh 30.26 in1024.7 mb 0.00 in0.0 mm 0.00 in/hr0.0 mm/hr 0.00 in0.0 mm
08:20 AM 30.5°F-0.8°C 26.5°F-3.1°C 85% 4.0 mph NW6.4 kmh NW 9.0 mph14.5 kmh 30.26 in1024.7 mb 0.00 in0.0 mm 0.00 in/hr0.0 mm/hr 0.00 in0.0 mm
08:30 AM 30.5°F-0.8°C 26.5°F-3.1°C 85% 5.0 mph WNW8.0 kmh WNW 9.0 mph14.5 kmh 30.26 in1024.7 mb 0.00 in0.0 mm 0.00 in/hr0.0 mm/hr 0.00 in0.0 mm
08:40 AM 30.5°F-0.8°C 26.5°F-3.1°C 85% 4.0 mph W6.4 kmh W 10.0 mph16.1 kmh 30.27 in1025.1 mb 0.00 in0.0 mm 0.00 in/hr0.0 mm/hr 0.00 in0.0 mm
08:50 AM 30.6°F-0.8°C 26.6°F-3.0°C 85% 2.0 mph W3.2 kmh W 6.0 mph9.7 kmh 30.27 in1025.1 mb 0.00 in0.0 mm 0.00 in/hr0.0 mm/hr 0.00 in0.0 mm
09:00 AM 30.6°F-0.8°C 26.6°F-3.0°C 85% 9.0 mph NW14.5 kmh NW 9.0 mph14.5 kmh 30.27 in1025.1 mb 0.00 in0.0 mm 0.00 in/hr0.0 mm/hr 0.00 in0.0 mm
09:10 AM 30.7°F-0.7°C 26.7°F-2.9°C 85% 3.0 mph NW4.8 kmh NW 6.0 mph9.7 kmh 30.28 in1025.4 mb 0.00 in0.0 mm 0.00 in/hr0.0 mm/hr 0.00 in0.0 mm
09:20 AM 30.8°F-0.7°C 26.8°F-2.9°C 85% 2.0 mph NW3.2 kmh NW 11.0 mph17.7 kmh 30.28 in1025.4 mb 0.00 in0.0 mm 0.00 in/hr0.0 mm/hr 0.00 in0.0 mm
09:30 AM 30.8°F-0.7°C 26.8°F-2.9°C 85% 5.0 mph W8.0 kmh W 9.0 mph14.5 kmh 30.28 in1025.4 mb 0.00 in0.0 mm 0.00 in/hr0.0 mm/hr 0.00 in0.0 mm
09:40 AM 30.8°F-0.7°C 26.6°F-3.0°C 84% 3.0 mph NW4.8 kmh NW 7.0 mph11.3 kmh 30.28 in1025.4 mb 0.00 in0.0 mm 0.00 in/hr0.0 mm/hr 0.00 in0.0 mm
09:50 AM 30.9°F-0.6°C 26.6°F-3.0°C 84% 6.0 mph WNW9.7 kmh WNW 11.0 mph17.7 kmh 30.29 in1025.7 mb 0.00 in0.0 mm 0.00 in/hr0.0 mm/hr 0.00 in0.0 mm
10:00 AM 30.8°F-0.7°C 26.6°F-3.0°C 84% 2.0 mph W3.2 kmh W 11.0 mph17.7 kmh 30.29 in1025.7 mb 0.00 in0.0 mm 0.00 in/hr0.0 mm/hr 0.00 in0.0 mm
10:10 AM 30.7°F-0.7°C 26.5°F-3.1°C 84% 3.0 mph WNW4.8 kmh WNW 3.0 mph4.8 kmh 30.30 in1026.1 mb 0.00 in0.0 mm 0.00 in/hr0.0 mm/hr 0.00 in0.0 mm
10:20 AM 30.8°F-0.7°C 26.6°F-3.0°C 84% 5.0 mph W8.0 kmh W 10.0 mph16.1 kmh 30.30 in1026.1 mb 0.00 in0.0 mm 0.00 in/hr0.0 mm/hr 0.00 in0.0 mm
10:30 AM 30.8°F-0.7°C 26.6°F-3.0°C 84% 5.0 mph W8.0 kmh W 10.0 mph16.1 kmh 30.30 in1026.1 mb 0.00 in0.0 mm 0.00 in/hr0.0 mm/hr 0.00 in0.0 mm
10:40 AM 30.8°F-0.7°C 26.6°F-3.0°C 84% 4.0 mph W6.4 kmh W 11.0 mph17.7 kmh 30.30 in1026.1 mb 0.00 in0.0 mm 0.00 in/hr0.0 mm/hr 0.00 in0.0 mm
10:50 AM 30.8°F-0.7°C 26.6°F-3.0°C 84% 9.0 mph W14.5 kmh W 12.0 mph19.3 kmh 30.30 in1026.1 mb 0.00 in0.0 mm 0.00 in/hr0.0 mm/hr 0.00 in0.0 mm
11:00 AM 30.9°F-0.6°C 26.6°F-3.0°C 84% 4.0 mph W6.4 kmh W 7.0 mph11.3 kmh 30.30 in1026.1 mb 0.00 in0.0 mm 0.00 in/hr0.0 mm/hr 0.00 in0.0 mm
11:10 AM 30.9°F-0.6°C 26.4°F-3.1°C 83% 6.0 mph WSW9.7 kmh WSW 13.0 mph20.9 kmh 30.30 in1026.1 mb 0.00 in0.0 mm 0.00 in/hr0.0 mm/hr 0.00 in0.0 mm
11:20 AM 30.8°F-0.7°C 26.3°F-3.2°C 83% 6.0 mph W9.7 kmh W 16.0 mph25.7 kmh 30.30 in1026.1 mb 0.00 in0.0 mm 0.00 in/hr0.0 mm/hr 0.00 in0.0 mm
11:30 AM 30.9°F-0.6°C 26.1°F-3.3°C 82% 8.0 mph WNW12.9 kmh WNW 15.0 mph24.1 kmh 30.29 in1025.7 mb 0.00 in0.0 mm 0.00 in/hr0.0 mm/hr 0.00 in0.0 mm
11:40 AM 31.0°F-0.6°C 26.2°F-3.2°C 82% 4.0 mph NW6.4 kmh NW 13.0 mph20.9 kmh 30.29 in1025.7 mb 0.00 in0.0 mm 0.00 in/hr0.0 mm/hr 0.00 in0.0 mm
11:50 AM 31.0°F-0.6°C 26.2°F-3.2°C 82% 4.0 mph WSW6.4 kmh WSW 12.0 mph19.3 kmh 30.28 in1025.4 mb 0.00 in0.0 mm 0.00 in/hr0.0 mm/hr 0.00 in0.0 mm
12:00 PM 31.2°F-0.4°C 26.4°F-3.1°C 82% 7.0 mph WSW11.3 kmh WSW 10.0 mph16.1 kmh 30.28 in1025.4 mb 0.00 in0.0 mm 0.00 in/hr0.0 mm/hr 0.00 in0.0 mm
12:10 PM 31.1°F-0.5°C 26.3°F-3.2°C 82% 5.0 mph WSW8.0 kmh WSW 11.0 mph17.7 kmh 30.27 in1025.1 mb 0.00 in0.0 mm 0.00 in/hr0.0 mm/hr 0.00 in0.0 mm
12:20 PM 31.1°F-0.5°C 26.3°F-3.2°C 82% 6.0 mph WSW9.7 kmh WSW 12.0 mph19.3 kmh 30.27 in1025.1 mb 0.00 in0.0 mm 0.00 in/hr0.0 mm/hr 0.00 in0.0 mm
12:30 PM 31.2°F-0.4°C 26.4°F-3.1°C 82% 4.0 mph W6.4 kmh W 5.0 mph8.0 kmh 30.27 in1025.1 mb 0.00 in0.0 mm 0.00 in/hr0.0 mm/hr 0.00 in0.0 mm
12:40 PM 31.2°F-0.4°C 26.4°F-3.1°C 82% 5.0 mph W8.0 kmh W 11.0 mph17.7 kmh 30.26 in1024.7 mb 0.00 in0.0 mm 0.00 in/hr0.0 mm/hr 0.00 in0.0 mm
12:50 PM 31.3°F-0.4°C 26.5°F-3.1°C 82% 4.0 mph W6.4 kmh W 9.0 mph14.5 kmh 30.27 in1025.1 mb 0.00 in0.0 mm 0.00 in/hr0.0 mm/hr 0.00 in0.0 mm
01:00 PM 31.4°F-0.3°C 26.6°F-3.0°C 82% 5.0 mph W8.0 kmh W 10.0 mph16.1 kmh 30.26 in1024.7 mb 0.00 in0.0 mm 0.00 in/hr0.0 mm/hr 0.00 in0.0 mm
01:10 PM 31.5°F-0.3°C 26.9°F-2.8°C 83% 4.0 mph W6.4 kmh W 12.0 mph19.3 kmh 30.26 in1024.7 mb 0.00 in0.0 mm 0.00 in/hr0.0 mm/hr 0.00 in0.0 mm
01:20 PM 31.5°F-0.3°C 26.9°F-2.8°C 83% 5.0 mph WSW8.0 kmh WSW 10.0 mph16.1 kmh 30.25 in1024.4 mb 0.00 in0.0 mm 0.00 in/hr0.0 mm/hr 0.00 in0.0 mm
01:30 PM 31.5°F-0.3°C 26.9°F-2.8°C 83% 3.0 mph W4.8 kmh W 11.0 mph17.7 kmh 30.25 in1024.4 mb 0.00 in0.0 mm 0.00 in/hr0.0 mm/hr 0.00 in0.0 mm
01:40 PM 31.4°F-0.3°C 26.8°F-2.9°C 83% 5.0 mph SW8.0 kmh SW 13.0 mph20.9 kmh 30.25 in1024.4 mb 0.00 in0.0 mm 0.00 in/hr0.0 mm/hr 0.00 in0.0 mm
01:50 PM 31.2°F-0.4°C 26.7°F-2.9°C 83% 5.0 mph W8.0 kmh W 11.0 mph17.7 kmh 30.24 in1024.0 mb 0.00 in0.0 mm 0.00 in/hr0.0 mm/hr 0.00 in0.0 mm
02:00 PM 31.3°F-0.4°C 26.8°F-2.9°C 83% 6.0 mph WSW9.7 kmh WSW 11.0 mph17.7 kmh 30.25 in1024.4 mb 0.00 in0.0 mm 0.00 in/hr0.0 mm/hr 0.00 in0.0 mm
02:10 PM 31.0°F-0.6°C 26.2°F-3.2°C 82% 4.0 mph W6.4 kmh W 10.0 mph16.1 kmh 30.25 in1024.4 mb 0.00 in0.0 mm 0.00 in/hr0.0 mm/hr 0.00 in0.0 mm
02:20 PM 30.9°F-0.6°C 26.1°F-3.3°C 82% 6.0 mph WSW9.7 kmh WSW 12.0 mph19.3 kmh 30.25 in1024.4 mb 0.00 in0.0 mm 0.00 in/hr0.0 mm/hr 0.00 in0.0 mm
02:30 PM 30.9°F-0.6°C 26.1°F-3.3°C 82% 16.0 mph SW25.7 kmh SW 16.0 mph25.7 kmh 30.25 in1024.4 mb 0.00 in0.0 mm 0.00 in/hr0.0 mm/hr 0.00 in0.0 mm
02:40 PM 30.4°F-0.9°C 25.6°F-3.6°C 82% 5.0 mph W8.0 kmh W 14.0 mph22.5 kmh 30.25 in1024.4 mb 0.00 in0.0 mm 0.00 in/hr0.0 mm/hr 0.00 in0.0 mm
02:50 PM 30.5°F-0.8°C 25.7°F-3.5°C 82% 6.0 mph W9.7 kmh W 11.0 mph17.7 kmh 30.25 in1024.4 mb 0.00 in0.0 mm 0.00 in/hr0.0 mm/hr 0.00 in0.0 mm
03:00 PM 30.7°F-0.7°C 25.9°F-3.4°C 82% 5.0 mph W8.0 kmh W 12.0 mph19.3 kmh 30.25 in1024.4 mb 0.00 in0.0 mm 0.00 in/hr0.0 mm/hr 0.00 in0.0 mm
03:10 PM 30.7°F-0.7°C 25.9°F-3.4°C 82% 3.0 mph W4.8 kmh W 9.0 mph14.5 kmh 30.25 in1024.4 mb 0.00 in0.0 mm 0.00 in/hr0.0 mm/hr 0.00 in0.0 mm
03:20 PM 30.7°F-0.7°C 25.9°F-3.4°C 82% 4.0 mph W6.4 kmh W 10.0 mph16.1 kmh 30.25 in1024.4 mb 0.00 in0.0 mm 0.00 in/hr0.0 mm/hr 0.00 in0.0 mm
03:30 PM 30.6°F-0.8°C 25.8°F-3.4°C 82% 2.0 mph W3.2 kmh W 8.0 mph12.9 kmh 30.25 in1024.4 mb 0.00 in0.0 mm 0.00 in/hr0.0 mm/hr 0.00 in0.0 mm
03:40 PM 30.6°F-0.8°C 25.5°F-3.6°C 81% 7.0 mph WNW11.3 kmh WNW 12.0 mph19.3 kmh 30.25 in1024.4 mb 0.00 in0.0 mm 0.00 in/hr0.0 mm/hr 0.00 in0.0 mm
03:50 PM 30.2°F-1.0°C 25.1°F-3.8°C 81% 5.0 mph W8.0 kmh W 14.0 mph22.5 kmh 30.25 in1024.4 mb 0.00 in0.0 mm 0.00 in/hr0.0 mm/hr 0.00 in0.0 mm
04:00 PM 30.1°F-1.1°C 25.0°F-3.9°C 81% 5.0 mph W8.0 kmh W 11.0 mph17.7 kmh 30.26 in1024.7 mb 0.00 in0.0 mm 0.00 in/hr0.0 mm/hr 0.00 in0.0 mm
04:10 PM 30.0°F-1.1°C 24.9°F-3.9°C 81% 1.0 mph W1.6 kmh W 11.0 mph17.7 kmh 30.26 in1024.7 mb 0.00 in0.0 mm 0.00 in/hr0.0 mm/hr 0.00 in0.0 mm
04:20 PM 29.9°F-1.2°C 24.8°F-4.0°C 81% 1.0 mph W1.6 kmh W 9.0 mph14.5 kmh 30.26 in1024.7 mb 0.00 in0.0 mm 0.00 in/hr0.0 mm/hr 0.00 in0.0 mm
04:30 PM 29.9°F-1.2°C 24.8°F-4.0°C 81% 2.0 mph W3.2 kmh W 6.0 mph9.7 kmh 30.27 in1025.1 mb 0.00 in0.0 mm 0.00 in/hr0.0 mm/hr 0.00 in0.0 mm
04:40 PM 29.9°F-1.2°C 25.1°F-3.8°C 82% 5.0 mph W8.0 kmh W 12.0 mph19.3 kmh 30.27 in1025.1 mb 0.00 in0.0 mm 0.00 in/hr0.0 mm/hr 0.00 in0.0 mm
04:50 PM 29.8°F-1.2°C 25.0°F-3.9°C 82% 2.0 mph W3.2 kmh W 6.0 mph9.7 kmh 30.28 in1025.4 mb 0.00 in0.0 mm 0.00 in/hr0.0 mm/hr 0.00 in0.0 mm
05:00 PM 29.9°F-1.2°C 25.1°F-3.8°C 82% 2.0 mph W3.2 kmh W 9.0 mph14.5 kmh 30.29 in1025.7 mb 0.00 in0.0 mm 0.00 in/hr0.0 mm/hr 0.00 in0.0 mm
05:10 PM 29.9°F-1.2°C 25.1°F-3.8°C 82% 4.0 mph W6.4 kmh W 6.0 mph9.7 kmh 30.28 in1025.4 mb 0.00 in0.0 mm 0.00 in/hr0.0 mm/hr 0.00 in0.0 mm
05:20 PM 29.8°F-1.2°C 25.0°F-3.9°C 82% Calm Calm 5.0 mph8.0 kmh 30.28 in1025.4 mb 0.00 in0.0 mm 0.00 in/hr0.0 mm/hr 0.00 in0.0 mm
05:30 PM 29.8°F-1.2°C 25.0°F-3.9°C 82% 4.0 mph WSW6.4 kmh WSW 12.0 mph19.3 kmh 30.28 in1025.4 mb 0.00 in0.0 mm 0.00 in/hr0.0 mm/hr 0.00 in0.0 mm
05:40 PM 29.8°F-1.2°C 25.3°F-3.7°C 83% 6.0 mph WSW9.7 kmh WSW 7.0 mph11.3 kmh 30.29 in1025.7 mb 0.00 in0.0 mm 0.00 in/hr0.0 mm/hr 0.00 in0.0 mm
05:50 PM 29.5°F-1.4°C 24.7°F-4.1°C 82% 7.0 mph WSW11.3 kmh WSW 17.0 mph27.4 kmh 30.29 in1025.7 mb 0.00 in0.0 mm 0.00 in/hr0.0 mm/hr 0.00 in0.0 mm
06:00 PM 29.4°F-1.4°C 24.6°F-4.1°C 82% 5.0 mph WSW8.0 kmh WSW 14.0 mph22.5 kmh 30.29 in1025.7 mb 0.00 in0.0 mm 0.00 in/hr0.0 mm/hr 0.00 in0.0 mm
06:10 PM 29.4°F-1.4°C 24.6°F-4.1°C 82% 4.0 mph WSW6.4 kmh WSW 8.0 mph12.9 kmh 30.29 in1025.7 mb 0.00 in0.0 mm 0.00 in/hr0.0 mm/hr 0.00 in0.0 mm
06:20 PM 29.3°F-1.5°C 24.5°F-4.2°C 82% 5.0 mph WSW8.0 kmh WSW 13.0 mph20.9 kmh 30.30 in1026.1 mb 0.00 in0.0 mm 0.00 in/hr0.0 mm/hr 0.00 in0.0 mm
06:30 PM 29.2°F-1.6°C 24.4°F-4.2°C 82% 4.0 mph W6.4 kmh W 13.0 mph20.9 kmh 30.31 in1026.4 mb 0.00 in0.0 mm 0.00 in/hr0.0 mm/hr 0.00 in0.0 mm
06:40 PM 29.0°F-1.7°C 24.2°F-4.3°C 82% 2.0 mph W3.2 kmh W 11.0 mph17.7 kmh 30.31 in1026.4 mb 0.00 in0.0 mm 0.00 in/hr0.0 mm/hr 0.00 in0.0 mm
06:50 PM 28.9°F-1.7°C 24.1°F-4.4°C 82% 2.0 mph NW3.2 kmh NW 7.0 mph11.3 kmh 30.30 in1026.1 mb 0.00 in0.0 mm 0.00 in/hr0.0 mm/hr 0.00 in0.0 mm
07:00 PM 28.6°F-1.9°C 23.8°F-4.6°C 82% Calm Calm 10.0 mph16.1 kmh 30.31 in1026.4 mb 0.00 in0.0 mm 0.00 in/hr0.0 mm/hr 0.00 in0.0 mm
07:10 PM 28.5°F-1.9°C 23.7°F-4.6°C 82% 5.0 mph W8.0 kmh W 11.0 mph17.7 kmh 30.30 in1026.1 mb 0.00 in0.0 mm 0.00 in/hr0.0 mm/hr 0.00 in0.0 mm
07:20 PM 28.3°F-2.1°C 23.5°F-4.7°C 82% 7.0 mph W11.3 kmh W 10.0 mph16.1 kmh 30.31 in1026.4 mb 0.00 in0.0 mm 0.00 in/hr0.0 mm/hr 0.00 in0.0 mm
07:30 PM 28.3°F-2.1°C 23.5°F-4.7°C 82% 5.0 mph WSW8.0 kmh WSW 9.0 mph14.5 kmh 30.31 in1026.4 mb 0.00 in0.0 mm 0.00 in/hr0.0 mm/hr 0.00 in0.0 mm
07:40 PM 28.2°F-2.1°C 23.4°F-4.8°C 82% 6.0 mph W9.7 kmh W 16.0 mph25.7 kmh 30.31 in1026.4 mb 0.00 in0.0 mm 0.00 in/hr0.0 mm/hr 0.00 in0.0 mm
07:50 PM 28.1°F-2.2°C 23.3°F-4.8°C 82% 4.0 mph NW6.4 kmh NW 7.0 mph11.3 kmh 30.31 in1026.4 mb 0.00 in0.0 mm 0.00 in/hr0.0 mm/hr 0.00 in0.0 mm
08:00 PM 28.0°F-2.2°C 23.2°F-4.9°C 82% 2.0 mph WSW3.2 kmh WSW 12.0 mph19.3 kmh 30.31 in1026.4 mb 0.00 in0.0 mm 0.00 in/hr0.0 mm/hr 0.00 in0.0 mm
08:10 PM 28.0°F-2.2°C 22.9°F-5.1°C 81% 6.0 mph W9.7 kmh W 10.0 mph16.1 kmh 30.31 in1026.4 mb 0.00 in0.0 mm 0.00 in/hr0.0 mm/hr 0.00 in0.0 mm
08:20 PM 28.0°F-2.2°C 23.2°F-4.9°C 82% 3.0 mph NW4.8 kmh NW 10.0 mph16.1 kmh 30.31 in1026.4 mb 0.00 in0.0 mm 0.00 in/hr0.0 mm/hr 0.00 in0.0 mm
08:30 PM 28.1°F-2.2°C 23.3°F-4.8°C 82% 5.0 mph WNW8.0 kmh WNW 7.0 mph11.3 kmh 30.32 in1026.8 mb 0.00 in0.0 mm 0.00 in/hr0.0 mm/hr 0.00 in0.0 mm
08:40 PM 27.8°F-2.3°C 23.0°F-5.0°C 82% 3.0 mph NW4.8 kmh NW 4.0 mph6.4 kmh 30.31 in1026.4 mb 0.00 in0.0 mm 0.00 in/hr0.0 mm/hr 0.00 in0.0 mm
08:50 PM 27.7°F-2.4°C 22.9°F-5.1°C 82% 1.0 mph NW1.6 kmh NW 7.0 mph11.3 kmh 30.31 in1026.4 mb 0.00 in0.0 mm 0.00 in/hr0.0 mm/hr 0.00 in0.0 mm
09:00 PM 27.6°F-2.4°C 22.8°F-5.1°C 82% 3.0 mph WNW4.8 kmh WNW 7.0 mph11.3 kmh 30.32 in1026.8 mb 0.00 in0.0 mm 0.00 in/hr0.0 mm/hr 0.00 in0.0 mm
09:10 PM 27.6°F-2.4°C 22.8°F-5.1°C 82% Calm Calm 6.0 mph9.7 kmh 30.32 in1026.8 mb 0.00 in0.0 mm 0.00 in/hr0.0 mm/hr 0.00 in0.0 mm
09:20 PM 27.6°F-2.4°C 22.8°F-5.1°C 82% 1.0 mph NW1.6 kmh NW 5.0 mph8.0 kmh 30.32 in1026.8 mb 0.00 in0.0 mm 0.00 in/hr0.0 mm/hr 0.00 in0.0 mm
09:30 PM 27.5°F-2.5°C 22.7°F-5.2°C 82% 2.0 mph NW3.2 kmh NW 11.0 mph17.7 kmh 30.32 in1026.8 mb 0.00 in0.0 mm 0.00 in/hr0.0 mm/hr 0.00 in0.0 mm
09:40 PM 27.3°F-2.6°C 22.5°F-5.3°C 82% 1.0 mph NW1.6 kmh NW 9.0 mph14.5 kmh 30.32 in1026.8 mb 0.00 in0.0 mm 0.00 in/hr0.0 mm/hr 0.00 in0.0 mm
09:50 PM 27.1°F-2.7°C 22.4°F-5.3°C 82% 6.0 mph NW9.7 kmh NW 9.0 mph14.5 kmh 30.33 in1027.1 mb 0.00 in0.0 mm 0.00 in/hr0.0 mm/hr 0.00 in0.0 mm
10:00 PM 26.9°F-2.8°C 22.2°F-5.4°C 82% 6.0 mph N9.7 kmh N 10.0 mph16.1 kmh 30.33 in1027.1 mb 0.00 in0.0 mm 0.00 in/hr0.0 mm/hr 0.00 in0.0 mm
10:10 PM 26.7°F-2.9°C 22.2°F-5.4°C 83% 4.0 mph NW6.4 kmh NW 7.0 mph11.3 kmh 30.33 in1027.1 mb 0.00 in0.0 mm 0.00 in/hr0.0 mm/hr 0.00 in0.0 mm
10:20 PM 26.4°F-3.1°C 21.7°F-5.7°C 82% 5.0 mph NW8.0 kmh NW 12.0 mph19.3 kmh 30.33 in1027.1 mb 0.00 in0.0 mm 0.00 in/hr0.0 mm/hr 0.00 in0.0 mm
10:30 PM 26.2°F-3.2°C 21.5°F-5.8°C 82% 7.0 mph N11.3 kmh N 12.0 mph19.3 kmh 30.33 in1027.1 mb 0.00 in0.0 mm 0.00 in/hr0.0 mm/hr 0.00 in0.0 mm
10:40 PM 26.0°F-3.3°C 21.3°F-5.9°C 82% 6.0 mph NNW9.7 kmh NNW 11.0 mph17.7 kmh 30.33 in1027.1 mb 0.00 in0.0 mm 0.00 in/hr0.0 mm/hr 0.00 in0.0 mm
10:50 PM 25.8°F-3.4°C 21.1°F-6.1°C 82% 8.0 mph NW12.9 kmh NW 13.0 mph20.9 kmh 30.33 in1027.1 mb 0.00 in0.0 mm 0.00 in/hr0.0 mm/hr 0.00 in0.0 mm
11:00 PM 25.6°F-3.6°C 20.6°F-6.3°C 81% 3.0 mph NW4.8 kmh NW 7.0 mph11.3 kmh 30.33 in1027.1 mb 0.00 in0.0 mm 0.00 in/hr0.0 mm/hr 0.00 in0.0 mm
11:10 PM 25.7°F-3.5°C 20.7°F-6.3°C 81% 4.0 mph NW6.4 kmh NW 6.0 mph9.7 kmh 30.33 in1027.1 mb 0.00 in0.0 mm 0.00 in/hr0.0 mm/hr 0.00 in0.0 mm
11:20 PM 25.7°F-3.5°C 21.0°F-6.1°C 82% 1.0 mph WNW1.6 kmh WNW 5.0 mph8.0 kmh 30.34 in1027.4 mb 0.00 in0.0 mm 0.00 in/hr0.0 mm/hr 0.00 in0.0 mm
11:30 PM 25.7°F-3.5°C 21.0°F-6.1°C 82% 1.0 mph W1.6 kmh W 4.0 mph6.4 kmh 30.34 in1027.4 mb 0.00 in0.0 mm 0.00 in/hr0.0 mm/hr 0.00 in0.0 mm
11:40 PM 25.8°F-3.4°C 21.1°F-6.1°C 82% 3.0 mph NW4.8 kmh NW 9.0 mph14.5 kmh 30.34 in1027.4 mb 0.00 in0.0 mm 0.00 in/hr0.0 mm/hr 0.00 in0.0 mm
11:50 PM 25.9°F-3.4°C 21.2°F-6.0°C 82% 2.0 mph N3.2 kmh N 9.0 mph14.5 kmh 30.34 in1027.4 mb 0.00 in0.0 mm 0.00 in/hr0.0 mm/hr 0.00 in0.0 mm